createdAt,value
2022-12-25T00:00:37.181Z,0.00
2022-12-25T00:01:37.123Z,0.00
2022-12-25T00:02:37.214Z,0.00
2022-12-25T00:03:37.179Z,0.00
2022-12-25T00:05:33.269Z,0.00
2022-12-25T00:06:33.266Z,0.00
2022-12-25T00:07:33.219Z,0.00
2022-12-25T00:08:33.228Z,0.00
2022-12-25T00:09:33.188Z,0.00
2022-12-25T00:10:33.217Z,0.00
2022-12-25T00:11:33.215Z,0.00
2022-12-25T00:12:33.188Z,0.00
2022-12-25T00:13:33.149Z,0.00
2022-12-25T00:14:33.150Z,0.00
2022-12-25T00:15:33.118Z,0.00
2022-12-25T00:16:33.155Z,0.00
2022-12-25T00:17:33.122Z,0.00
2022-12-25T00:18:33.116Z,0.00
2022-12-25T00:19:33.092Z,0.00
2022-12-25T00:20:33.103Z,0.00
2022-12-25T00:21:33.057Z,0.00
2022-12-25T00:22:33.057Z,0.00
2022-12-25T00:23:33.054Z,0.00
2022-12-25T00:24:33.030Z,0.00
2022-12-25T00:25:32.990Z,0.00
2022-12-25T00:26:32.990Z,0.00
2022-12-25T00:27:32.972Z,0.00
2022-12-25T00:28:32.961Z,0.00
2022-12-25T00:29:32.951Z,0.00
2022-12-25T00:30:32.975Z,0.00
2022-12-25T00:31:32.927Z,0.00
2022-12-25T00:32:32.912Z,0.00
2022-12-25T00:33:32.905Z,0.00
2022-12-25T00:34:32.905Z,0.00
2022-12-25T00:35:32.876Z,0.00
2022-12-25T00:36:39.532Z,0.00
2022-12-25T00:37:33.838Z,0.00
2022-12-25T00:38:32.843Z,0.00
2022-12-25T00:39:32.822Z,0.00
2022-12-25T00:40:32.831Z,0.00
2022-12-25T00:41:32.805Z,0.00
2022-12-25T00:42:32.793Z,0.00
2022-12-25T00:43:32.757Z,0.00
2022-12-25T00:44:32.748Z,0.00
2022-12-25T00:45:32.834Z,0.00
2022-12-25T00:46:32.784Z,0.00
2022-12-25T00:47:32.721Z,0.00
2022-12-25T00:48:32.733Z,0.00
2022-12-25T00:49:32.693Z,0.00
2022-12-25T00:50:32.691Z,0.00
2022-12-25T00:51:32.671Z,0.00
2022-12-25T00:52:32.667Z,0.00
2022-12-25T00:53:32.659Z,0.00
2022-12-25T00:54:32.646Z,0.00
2022-12-25T00:55:32.611Z,0.00
2022-12-25T00:56:32.647Z,0.00
2022-12-25T00:57:32.619Z,0.00
2022-12-25T00:58:32.634Z,0.00
2022-12-25T00:59:32.560Z,0.00
2022-12-25T01:00:32.591Z,0.00
2022-12-25T01:01:32.604Z,0.00
2022-12-25T01:02:32.644Z,0.00
2022-12-25T01:03:32.515Z,0.00
2022-12-25T01:04:32.509Z,0.00
2022-12-25T01:05:32.478Z,0.00
2022-12-25T01:06:32.479Z,0.00
2022-12-25T01:07:32.475Z,0.00
2022-12-25T01:08:32.498Z,0.00
2022-12-25T01:09:32.435Z,0.00
2022-12-25T01:10:32.449Z,0.00
2022-12-25T01:11:32.400Z,0.00
2022-12-25T01:12:32.398Z,0.00
2022-12-25T01:13:32.376Z,0.00
2022-12-25T01:14:32.360Z,0.00
2022-12-25T01:15:32.357Z,0.00
2022-12-25T01:16:32.370Z,0.00
2022-12-25T01:17:32.319Z,0.00
2022-12-25T01:18:32.322Z,0.00
2022-12-25T01:19:32.298Z,0.00
2022-12-25T01:20:32.293Z,0.00
2022-12-25T01:21:32.282Z,0.00
2022-12-25T01:22:32.263Z,0.00
2022-12-25T01:23:32.276Z,0.00
2022-12-25T01:24:32.228Z,0.00
2022-12-25T01:25:32.260Z,0.00
2022-12-25T01:26:32.200Z,0.00
2022-12-25T01:27:32.247Z,0.00
2022-12-25T01:28:32.186Z,0.00
2022-12-25T01:29:32.179Z,0.00
2022-12-25T01:30:32.209Z,0.00
2022-12-25T01:31:32.178Z,0.00
2022-12-25T01:32:32.149Z,0.00
2022-12-25T01:33:32.227Z,0.00
2022-12-25T01:34:32.101Z,0.00
2022-12-25T01:35:32.112Z,0.00
2022-12-25T01:36:32.068Z,0.00
2022-12-25T01:37:32.067Z,0.00
2022-12-25T01:38:32.057Z,0.00
2022-12-25T01:39:32.058Z,0.00
2022-12-25T01:40:32.136Z,0.00
2022-12-25T01:41:32.046Z,0.00
2022-12-25T01:42:32.008Z,0.00
2022-12-25T01:43:31.999Z,0.00
2022-12-25T01:44:31.981Z,0.00
2022-12-25T01:45:32.024Z,0.00
2022-12-25T01:46:31.947Z,0.00
2022-12-25T01:47:31.945Z,0.00
2022-12-25T01:48:31.972Z,0.00
2022-12-25T01:49:31.916Z,0.00
2022-12-25T01:50:31.901Z,0.00
2022-12-25T01:51:31.902Z,0.00
2022-12-25T01:52:31.865Z,0.00
2022-12-25T01:53:31.879Z,0.00
2022-12-25T01:54:31.866Z,0.00
2022-12-25T01:55:31.838Z,0.00
2022-12-25T01:56:31.825Z,0.00
2022-12-25T01:57:31.824Z,0.00
2022-12-25T01:58:31.806Z,0.00
2022-12-25T01:59:31.801Z,0.00
2022-12-25T02:00:31.806Z,0.00
2022-12-25T02:01:31.888Z,0.00
2022-12-25T02:02:31.912Z,0.00
2022-12-25T02:03:31.833Z,0.00
2022-12-25T02:04:31.718Z,0.00
2022-12-25T02:05:31.740Z,0.00
2022-12-25T02:06:31.693Z,0.00
2022-12-25T02:07:31.707Z,0.00
2022-12-25T02:08:31.668Z,0.00
2022-12-25T02:09:31.675Z,0.00
2022-12-25T02:10:31.670Z,0.00
2022-12-25T02:11:31.660Z,0.00
2022-12-25T02:12:31.627Z,0.00
2022-12-25T02:13:31.619Z,0.00
2022-12-25T02:14:31.620Z,0.00
2022-12-25T02:15:31.602Z,0.00
2022-12-25T02:16:31.629Z,0.00
2022-12-25T02:17:31.557Z,0.00
2022-12-25T02:18:31.538Z,0.00
2022-12-25T02:19:31.538Z,0.00
2022-12-25T02:20:31.537Z,0.00
2022-12-25T02:21:31.519Z,0.00
2022-12-25T02:22:31.496Z,0.00
2022-12-25T02:23:31.488Z,0.00
2022-12-25T02:24:31.459Z,0.00
2022-12-25T02:25:31.460Z,0.00
2022-12-25T02:26:31.437Z,0.00
2022-12-25T02:27:31.430Z,0.00
2022-12-25T02:28:31.412Z,0.00
2022-12-25T02:29:31.401Z,0.00
2022-12-25T02:30:31.386Z,0.00
2022-12-25T02:31:31.405Z,0.00
2022-12-25T02:32:31.358Z,0.00
2022-12-25T02:33:31.359Z,0.00
2022-12-25T02:34:31.357Z,0.00
2022-12-25T02:35:31.384Z,0.00
2022-12-25T02:36:31.307Z,0.00
2022-12-25T02:37:31.317Z,0.00
2022-12-25T02:38:31.307Z,0.00
2022-12-25T02:39:31.289Z,0.00
2022-12-25T02:40:31.276Z,0.00
2022-12-25T02:41:31.258Z,0.00
2022-12-25T02:42:31.231Z,0.00
2022-12-25T02:43:31.220Z,0.00
2022-12-25T02:44:31.196Z,0.00
2022-12-25T02:45:31.400Z,0.00
2022-12-25T02:46:31.247Z,0.00
2022-12-25T02:47:31.172Z,0.00
2022-12-25T02:48:31.170Z,0.00
2022-12-25T02:49:31.147Z,0.00
2022-12-25T02:50:31.168Z,0.00
2022-12-25T02:51:31.124Z,0.00
2022-12-25T02:52:31.104Z,0.00
2022-12-25T02:53:31.109Z,0.00
2022-12-25T02:54:31.084Z,0.00
2022-12-25T02:55:31.081Z,0.00
2022-12-25T02:56:31.055Z,0.00
2022-12-25T02:57:31.046Z,0.00
2022-12-25T02:58:31.030Z,0.00
2022-12-25T02:59:31.029Z,0.00
2022-12-25T03:00:31.139Z,0.00
2022-12-25T03:01:31.079Z,0.00
2022-12-25T03:02:30.985Z,0.00
2022-12-25T03:03:31.021Z,0.00
2022-12-25T03:04:30.952Z,0.00
2022-12-25T03:05:30.957Z,0.00
2022-12-25T03:06:30.915Z,0.00
2022-12-25T03:07:30.912Z,0.00
2022-12-25T03:08:30.897Z,0.00
2022-12-25T03:09:30.896Z,0.00
2022-12-25T03:10:30.892Z,0.00
2022-12-25T03:11:30.916Z,0.00
2022-12-25T03:12:30.840Z,0.00
2022-12-25T03:13:30.839Z,0.00
2022-12-25T03:14:30.811Z,0.00
2022-12-25T03:15:30.812Z,0.00
2022-12-25T03:16:30.838Z,0.00
2022-12-25T03:17:30.815Z,0.00
2022-12-25T03:18:30.778Z,0.00
2022-12-25T03:19:30.761Z,0.00
2022-12-25T03:20:30.728Z,0.00
2022-12-25T03:21:30.741Z,0.00
2022-12-25T03:22:30.719Z,0.00
2022-12-25T03:23:30.731Z,0.00
2022-12-25T03:24:30.681Z,0.00
2022-12-25T03:25:30.680Z,0.00
2022-12-25T03:26:30.647Z,0.00
2022-12-25T03:27:30.691Z,0.00
2022-12-25T03:28:30.634Z,0.00
2022-12-25T03:29:31.936Z,0.00
2022-12-25T03:30:30.655Z,0.00
2022-12-25T03:31:30.614Z,0.00
2022-12-25T03:32:30.588Z,0.00
2022-12-25T03:33:45.004Z,0.00
2022-12-25T03:34:31.560Z,0.00
2022-12-25T03:35:30.547Z,0.00
2022-12-25T03:36:30.530Z,0.00
2022-12-25T03:37:30.525Z,0.00
2022-12-25T03:38:30.531Z,0.00
2022-12-25T03:39:30.498Z,0.00
2022-12-25T03:40:30.479Z,0.00
2022-12-25T03:41:30.470Z,0.00
2022-12-25T03:42:30.457Z,0.00
2022-12-25T03:43:30.457Z,0.00
2022-12-25T03:44:30.442Z,0.00
2022-12-25T03:45:30.419Z,0.00
2022-12-25T03:46:30.456Z,0.00
2022-12-25T03:47:30.395Z,0.00
2022-12-25T03:48:30.387Z,0.00
2022-12-25T03:49:30.389Z,0.00
2022-12-25T03:50:30.362Z,0.00
2022-12-25T03:51:30.355Z,0.00
2022-12-25T03:52:30.338Z,0.00
2022-12-25T03:53:30.373Z,0.00
2022-12-25T03:54:30.286Z,0.00
2022-12-25T03:55:30.306Z,0.00
2022-12-25T03:56:30.259Z,0.00
2022-12-25T03:57:30.280Z,0.00
2022-12-25T03:58:30.247Z,0.00
2022-12-25T03:59:30.253Z,0.00
2022-12-25T04:00:30.234Z,0.00
2022-12-25T04:01:30.389Z,0.00
2022-12-25T04:02:30.372Z,0.00
2022-12-25T04:03:30.266Z,0.00
2022-12-25T04:04:30.161Z,0.00
2022-12-25T04:05:30.161Z,0.00
2022-12-25T04:06:30.186Z,0.00
2022-12-25T04:07:30.153Z,0.00
2022-12-25T04:08:30.142Z,0.00
2022-12-25T04:09:30.110Z,0.00
2022-12-25T04:10:30.148Z,0.00
2022-12-25T04:11:30.082Z,0.00
2022-12-25T04:12:30.087Z,0.00
2022-12-25T04:13:30.069Z,0.00
2022-12-25T04:14:30.035Z,0.00
2022-12-25T04:15:30.088Z,0.00
2022-12-25T04:16:30.046Z,0.00
2022-12-25T04:17:30.070Z,0.00
2022-12-25T04:18:30.031Z,0.00
2022-12-25T04:19:30.018Z,0.00
2022-12-25T04:20:29.964Z,0.00
2022-12-25T04:21:29.971Z,0.00
2022-12-25T04:22:29.988Z,0.00
2022-12-25T04:23:29.947Z,0.00
2022-12-25T04:24:29.916Z,0.00
2022-12-25T04:25:29.928Z,0.00
2022-12-25T04:26:29.897Z,0.00
2022-12-25T04:27:29.933Z,0.00
2022-12-25T04:28:29.904Z,0.00
2022-12-25T04:29:29.847Z,0.00
2022-12-25T04:30:29.864Z,0.00
2022-12-25T04:31:29.937Z,0.00
2022-12-25T04:32:29.816Z,0.00
2022-12-25T04:33:29.819Z,0.00
2022-12-25T04:34:29.784Z,0.00
2022-12-25T04:35:29.788Z,0.00
2022-12-25T04:36:29.794Z,0.00
2022-12-25T04:37:29.771Z,0.00
2022-12-25T04:38:29.732Z,0.00
2022-12-25T04:39:29.749Z,0.00
2022-12-25T04:40:29.733Z,0.00
2022-12-25T04:41:29.722Z,0.00
2022-12-25T04:42:29.711Z,0.00
2022-12-25T04:43:29.677Z,0.00
2022-12-25T04:44:29.691Z,0.00
2022-12-25T04:45:29.721Z,0.00
2022-12-25T04:46:29.678Z,0.00
2022-12-25T04:47:29.648Z,0.00
2022-12-25T04:48:29.630Z,0.00
2022-12-25T04:49:29.628Z,0.00
2022-12-25T04:50:29.610Z,0.00
2022-12-25T04:51:29.597Z,0.00
2022-12-25T04:52:29.557Z,0.00
2022-12-25T04:53:29.571Z,0.00
2022-12-25T04:54:29.556Z,0.00
2022-12-25T04:55:29.547Z,0.00
2022-12-25T04:56:29.515Z,0.00
2022-12-25T04:57:29.536Z,0.00
2022-12-25T04:58:29.576Z,0.00
2022-12-25T04:59:29.573Z,0.00
2022-12-25T05:00:29.456Z,0.00
2022-12-25T05:01:29.604Z,0.00
2022-12-25T05:02:29.752Z,0.00
2022-12-25T05:03:29.501Z,0.00
2022-12-25T05:04:29.503Z,0.00
2022-12-25T05:05:29.437Z,0.00
2022-12-25T05:06:29.629Z,0.00
2022-12-25T05:07:29.452Z,0.00
2022-12-25T05:08:29.362Z,0.00
2022-12-25T05:09:29.414Z,0.00
2022-12-25T05:10:29.334Z,0.00
2022-12-25T05:11:29.322Z,0.00
2022-12-25T05:12:29.298Z,0.00
2022-12-25T05:13:29.344Z,0.00
2022-12-25T05:14:29.331Z,0.00
2022-12-25T05:15:29.286Z,0.00
2022-12-25T05:16:29.342Z,0.00
2022-12-25T05:17:29.288Z,0.00
2022-12-25T05:18:29.266Z,0.00
2022-12-25T05:19:29.255Z,0.00
2022-12-25T05:20:32.168Z,0.00
2022-12-25T05:21:30.205Z,0.00
2022-12-25T05:22:29.183Z,0.00
2022-12-25T05:23:29.186Z,0.00
2022-12-25T05:24:29.202Z,0.00
2022-12-25T05:25:29.165Z,0.00
2022-12-25T05:26:29.140Z,0.00
2022-12-25T05:27:29.127Z,0.00
2022-12-25T05:28:29.131Z,0.00
2022-12-25T05:29:29.116Z,0.00
2022-12-25T05:30:29.133Z,0.00
2022-12-25T05:31:29.205Z,0.00
2022-12-25T05:32:29.062Z,0.00
2022-12-25T05:33:29.066Z,0.00
2022-12-25T05:34:29.033Z,0.00
2022-12-25T05:35:29.039Z,0.00
2022-12-25T05:36:29.037Z,0.00
2022-12-25T05:37:28.992Z,0.00
2022-12-25T05:38:28.997Z,0.00
2022-12-25T05:39:28.964Z,0.00
2022-12-25T05:40:28.974Z,0.00
2022-12-25T05:41:34.020Z,0.00
2022-12-25T05:42:29.943Z,0.00
2022-12-25T05:43:28.930Z,0.00
2022-12-25T05:44:28.912Z,0.00
2022-12-25T05:45:28.886Z,0.00
2022-12-25T05:46:28.925Z,0.00
2022-12-25T05:47:28.863Z,0.00
2022-12-25T05:48:28.852Z,0.00
2022-12-25T05:49:28.826Z,0.00
2022-12-25T05:50:28.825Z,0.00
2022-12-25T05:51:28.845Z,0.00
2022-12-25T05:52:28.808Z,0.00
2022-12-25T05:53:28.787Z,0.00
2022-12-25T05:54:28.792Z,0.00
2022-12-25T05:55:28.755Z,0.00
2022-12-25T05:56:28.757Z,0.00
2022-12-25T05:57:28.745Z,0.00
2022-12-25T05:58:28.724Z,0.00
2022-12-25T05:59:28.717Z,0.00
2022-12-25T06:00:28.706Z,0.00
2022-12-25T06:01:28.822Z,0.00
2022-12-25T06:02:28.883Z,0.00
2022-12-25T06:03:28.732Z,0.00
2022-12-25T06:04:28.654Z,0.00
2022-12-25T06:05:35.632Z,0.00
2022-12-25T06:06:28.621Z,0.00
2022-12-25T06:07:28.600Z,0.00
2022-12-25T06:08:28.595Z,0.00
2022-12-25T06:09:28.573Z,0.00
2022-12-25T06:10:28.604Z,0.00
2022-12-25T06:11:28.545Z,0.00
2022-12-25T06:12:28.542Z,0.00
2022-12-25T06:13:28.525Z,0.00
2022-12-25T06:14:28.523Z,0.00
2022-12-25T06:15:28.494Z,0.00
2022-12-25T06:16:34.031Z,0.00
2022-12-25T06:17:29.472Z,0.00
2022-12-25T06:18:28.463Z,0.00
2022-12-25T06:19:28.432Z,0.00
2022-12-25T06:20:28.452Z,0.00
2022-12-25T06:21:28.418Z,0.00
2022-12-25T06:22:28.432Z,0.00
2022-12-25T06:23:28.435Z,0.00
2022-12-25T06:24:28.386Z,0.00
2022-12-25T06:25:28.380Z,0.00
2022-12-25T06:26:28.364Z,0.00
2022-12-25T06:27:28.347Z,0.00
2022-12-25T06:28:28.346Z,0.00
2022-12-25T06:29:28.323Z,0.00
2022-12-25T06:30:28.313Z,0.00
2022-12-25T06:31:28.305Z,0.00
2022-12-25T06:32:28.287Z,0.00
2022-12-25T06:33:28.253Z,0.00
2022-12-25T06:34:28.261Z,0.00
2022-12-25T06:35:28.240Z,0.00
2022-12-25T06:36:28.233Z,0.00
2022-12-25T06:37:28.212Z,0.00
2022-12-25T06:38:28.263Z,0.00
2022-12-25T06:39:28.185Z,0.00
2022-12-25T06:40:28.224Z,0.00
2022-12-25T06:41:28.151Z,0.00
2022-12-25T06:42:28.141Z,0.00
2022-12-25T06:43:28.145Z,0.00
2022-12-25T06:44:28.125Z,0.00
2022-12-25T06:45:28.143Z,0.00
2022-12-25T06:46:28.161Z,0.00
2022-12-25T06:47:28.071Z,0.00
2022-12-25T06:48:28.085Z,0.00
2022-12-25T06:49:28.069Z,0.00
2022-12-25T06:50:28.061Z,0.00
2022-12-25T06:51:28.052Z,0.00
2022-12-25T06:52:28.035Z,0.00
2022-12-25T06:53:31.183Z,0.00
2022-12-25T06:54:29.015Z,0.00
2022-12-25T06:55:27.991Z,0.00
2022-12-25T06:56:27.989Z,0.00
2022-12-25T06:57:27.965Z,0.00
2022-12-25T06:58:27.940Z,0.00
2022-12-25T06:59:27.920Z,0.00
2022-12-25T07:00:27.932Z,0.00
2022-12-25T07:01:28.049Z,0.00
2022-12-25T07:02:28.041Z,0.00
2022-12-25T07:03:27.926Z,0.00
2022-12-25T07:04:27.902Z,0.00
2022-12-25T07:05:27.850Z,0.00
2022-12-25T07:06:27.859Z,5.62
2022-12-25T07:07:27.845Z,5.62
2022-12-25T07:08:27.816Z,5.62
2022-12-25T07:09:27.800Z,5.62
2022-12-25T07:10:27.801Z,5.62
2022-12-25T07:11:27.803Z,5.62
2022-12-25T07:12:27.793Z,5.62
2022-12-25T07:13:27.736Z,5.62
2022-12-25T07:14:27.739Z,5.62
2022-12-25T07:15:27.719Z,5.62
2022-12-25T07:16:27.820Z,5.62
2022-12-25T07:17:27.708Z,11.25
2022-12-25T07:18:27.705Z,11.25
2022-12-25T07:19:27.668Z,11.25
2022-12-25T07:20:27.673Z,11.25
2022-12-25T07:21:27.665Z,11.25
2022-12-25T07:22:27.641Z,11.25
2022-12-25T07:23:27.617Z,11.25
2022-12-25T07:24:27.627Z,11.25
2022-12-25T07:25:30.912Z,11.25
2022-12-25T07:26:28.608Z,11.25
2022-12-25T07:27:27.584Z,16.88
2022-12-25T07:28:27.558Z,16.88
2022-12-25T07:29:27.546Z,16.88
2022-12-25T07:30:27.538Z,16.88
2022-12-25T07:31:27.532Z,16.88
2022-12-25T07:32:27.508Z,16.88
2022-12-25T07:33:27.487Z,16.88
2022-12-25T07:34:27.549Z,22.50
2022-12-25T07:35:27.469Z,22.50
2022-12-25T07:36:27.470Z,22.50
2022-12-25T07:37:27.441Z,22.50
2022-12-25T07:38:27.438Z,22.50
2022-12-25T07:39:27.416Z,28.12
2022-12-25T07:40:27.427Z,28.12
2022-12-25T07:41:27.398Z,28.12
2022-12-25T07:42:27.397Z,28.12
2022-12-25T07:43:27.362Z,33.75
2022-12-25T07:44:27.359Z,33.75
2022-12-25T07:45:27.417Z,33.75
2022-12-25T07:46:27.417Z,33.75
2022-12-25T07:47:27.310Z,39.38
2022-12-25T07:48:27.322Z,39.38
2022-12-25T07:49:27.299Z,39.38
2022-12-25T07:50:27.280Z,39.38
2022-12-25T07:51:27.289Z,45.00
2022-12-25T07:52:27.257Z,45.00
2022-12-25T07:53:27.234Z,45.00
2022-12-25T07:54:27.234Z,45.00
2022-12-25T07:55:27.206Z,45.00
2022-12-25T07:56:27.217Z,50.62
2022-12-25T07:57:27.177Z,50.62
2022-12-25T07:58:27.187Z,50.62
2022-12-25T07:59:27.157Z,50.62
2022-12-25T08:00:27.179Z,56.25
2022-12-25T08:01:27.365Z,56.25
2022-12-25T08:02:27.327Z,56.25
2022-12-25T08:03:27.235Z,56.25
2022-12-25T08:04:27.108Z,61.88
2022-12-25T08:05:27.080Z,61.88
2022-12-25T08:06:27.081Z,61.88
2022-12-25T08:07:27.066Z,61.88
2022-12-25T08:08:27.057Z,61.88
2022-12-25T08:09:27.031Z,67.50
2022-12-25T08:10:27.028Z,67.50
2022-12-25T08:11:27.020Z,67.50
2022-12-25T08:12:27.026Z,67.50
2022-12-25T08:13:26.978Z,73.12
2022-12-25T08:14:26.976Z,73.12
2022-12-25T08:15:26.957Z,73.12
2022-12-25T08:16:27.018Z,78.75
2022-12-25T08:17:26.954Z,78.75
2022-12-25T08:18:29.808Z,78.75
2022-12-25T08:19:26.907Z,78.75
2022-12-25T08:20:26.947Z,84.38
2022-12-25T08:21:26.883Z,84.38
2022-12-25T08:22:26.892Z,84.38
2022-12-25T08:23:26.863Z,84.38
2022-12-25T08:24:26.845Z,90.00
2022-12-25T08:25:26.827Z,90.00
2022-12-25T08:26:26.818Z,90.00
2022-12-25T08:27:26.797Z,90.00
2022-12-25T08:28:26.828Z,95.62
2022-12-25T08:29:26.786Z,95.62
2022-12-25T08:30:26.866Z,95.62
2022-12-25T08:31:26.845Z,101.25
2022-12-25T08:32:26.778Z,101.25
2022-12-25T08:33:26.740Z,101.25
2022-12-25T08:34:26.738Z,101.25
2022-12-25T08:35:26.714Z,101.25
2022-12-25T08:36:26.711Z,101.25
2022-12-25T08:37:26.691Z,101.25
2022-12-25T08:38:26.685Z,106.88
2022-12-25T08:39:26.677Z,106.88
2022-12-25T08:40:26.654Z,106.88
2022-12-25T08:41:26.634Z,106.88
2022-12-25T08:42:26.625Z,106.88
2022-12-25T08:43:26.605Z,112.50
2022-12-25T08:44:26.623Z,112.50
2022-12-25T08:45:32.776Z,112.50
2022-12-25T08:46:27.643Z,112.50
2022-12-25T08:47:26.568Z,112.50
2022-12-25T08:48:26.576Z,112.50
2022-12-25T08:49:26.528Z,112.50
2022-12-25T08:50:26.529Z,112.50
2022-12-25T08:51:26.492Z,118.12
2022-12-25T08:52:26.498Z,118.12
2022-12-25T08:53:26.469Z,118.12
2022-12-25T08:54:26.486Z,118.12
2022-12-25T08:55:26.457Z,123.75
2022-12-25T08:56:26.464Z,129.38
2022-12-25T08:57:26.426Z,129.38
2022-12-25T08:58:26.417Z,135.00
2022-12-25T08:59:26.407Z,135.00
2022-12-25T09:00:26.388Z,140.62
2022-12-25T09:01:26.438Z,146.25
2022-12-25T09:02:26.529Z,146.25
2022-12-25T09:03:26.398Z,146.25
2022-12-25T09:04:26.337Z,146.25
2022-12-25T09:05:26.325Z,146.25
2022-12-25T09:06:26.327Z,146.25
2022-12-25T09:07:26.292Z,146.25
2022-12-25T09:08:26.289Z,146.25
2022-12-25T09:09:26.256Z,140.62
2022-12-25T09:10:26.271Z,140.62
2022-12-25T09:11:26.256Z,140.62
2022-12-25T09:12:26.237Z,140.62
2022-12-25T09:13:26.207Z,140.62
2022-12-25T09:14:26.208Z,140.62
2022-12-25T09:15:26.185Z,140.62
2022-12-25T09:16:26.295Z,135.00
2022-12-25T09:17:26.227Z,129.38
2022-12-25T09:18:26.158Z,135.00
2022-12-25T09:19:26.156Z,129.38
2022-12-25T09:20:26.117Z,135.00
2022-12-25T09:21:26.104Z,135.00
2022-12-25T09:22:26.119Z,129.38
2022-12-25T09:23:26.087Z,140.62
2022-12-25T09:24:26.088Z,135.00
2022-12-25T09:25:26.063Z,135.00
2022-12-25T09:26:26.054Z,135.00
2022-12-25T09:27:26.028Z,135.00
2022-12-25T09:28:26.026Z,140.62
2022-12-25T09:29:26.013Z,140.62
2022-12-25T09:30:26.005Z,135.00
2022-12-25T09:31:26.037Z,135.00
2022-12-25T09:32:25.988Z,140.62
2022-12-25T09:33:25.968Z,140.62
2022-12-25T09:34:25.961Z,135.00
2022-12-25T09:35:25.926Z,135.00
2022-12-25T09:36:25.949Z,135.00
2022-12-25T09:37:25.898Z,140.62
2022-12-25T09:38:25.900Z,140.62
2022-12-25T09:39:25.898Z,140.62
2022-12-25T09:40:25.875Z,140.62
2022-12-25T09:41:25.845Z,140.62
2022-12-25T09:42:25.856Z,140.62
2022-12-25T09:43:25.814Z,135.00
2022-12-25T09:44:25.826Z,118.12
2022-12-25T09:45:25.813Z,129.38
2022-12-25T09:46:28.007Z,140.62
2022-12-25T09:47:26.778Z,151.88
2022-12-25T09:48:25.765Z,146.25
2022-12-25T09:49:25.756Z,151.88
2022-12-25T09:50:25.750Z,140.62
2022-12-25T09:51:25.780Z,146.25
2022-12-25T09:52:25.711Z,146.25
2022-12-25T09:53:25.704Z,146.25
2022-12-25T09:54:25.679Z,146.25
2022-12-25T09:55:25.679Z,146.25
2022-12-25T09:56:25.669Z,157.50
2022-12-25T09:57:25.664Z,146.25
2022-12-25T09:58:25.627Z,140.62
2022-12-25T09:59:25.627Z,151.88
2022-12-25T10:00:25.614Z,146.25
2022-12-25T10:01:25.678Z,146.25
2022-12-25T10:02:25.758Z,146.25
2022-12-25T10:03:25.625Z,157.50
2022-12-25T10:04:25.562Z,157.50
2022-12-25T10:05:25.557Z,174.38
2022-12-25T10:06:25.536Z,180.00
2022-12-25T10:07:25.526Z,174.38
2022-12-25T10:08:25.512Z,180.00
2022-12-25T10:09:25.503Z,180.00
2022-12-25T10:10:25.471Z,185.62
2022-12-25T10:11:25.465Z,185.62
2022-12-25T10:12:25.462Z,180.00
2022-12-25T10:13:25.444Z,180.00
2022-12-25T10:14:25.437Z,185.62
2022-12-25T10:15:25.422Z,180.00
2022-12-25T10:16:25.463Z,180.00
2022-12-25T10:17:25.393Z,180.00
2022-12-25T10:18:25.461Z,180.00
2022-12-25T10:19:25.402Z,174.38
2022-12-25T10:20:25.393Z,151.88
2022-12-25T10:21:25.358Z,140.62
2022-12-25T10:22:25.326Z,146.25
2022-12-25T10:23:25.383Z,151.88
2022-12-25T10:24:25.392Z,146.25
2022-12-25T10:25:25.310Z,163.12
2022-12-25T10:26:25.298Z,185.62
2022-12-25T10:27:25.261Z,174.38
2022-12-25T10:28:25.233Z,174.38
2022-12-25T10:29:25.274Z,180.00
2022-12-25T10:30:25.222Z,174.38
2022-12-25T10:31:25.328Z,174.38
2022-12-25T10:32:25.232Z,163.12
2022-12-25T10:33:25.200Z,163.12
2022-12-25T10:34:25.174Z,157.50
2022-12-25T10:35:25.183Z,157.50
2022-12-25T10:36:25.134Z,157.50
2022-12-25T10:37:25.150Z,146.25
2022-12-25T10:38:25.116Z,146.25
2022-12-25T10:39:25.120Z,146.25
2022-12-25T10:40:25.116Z,146.25
2022-12-25T10:41:25.077Z,146.25
2022-12-25T10:42:25.062Z,146.25
2022-12-25T10:43:25.055Z,146.25
2022-12-25T10:44:25.030Z,146.25
2022-12-25T10:45:25.025Z,146.25
2022-12-25T10:46:25.065Z,146.25
2022-12-25T10:47:25.013Z,151.88
2022-12-25T10:48:24.994Z,163.12
2022-12-25T10:49:24.987Z,168.75
2022-12-25T10:50:24.969Z,168.75
2022-12-25T10:51:24.976Z,168.75
2022-12-25T10:52:24.929Z,174.38
2022-12-25T10:53:24.943Z,180.00
2022-12-25T10:54:24.907Z,180.00
2022-12-25T10:55:28.661Z,174.38
2022-12-25T10:56:24.923Z,180.00
2022-12-25T10:57:24.908Z,174.38
2022-12-25T10:58:24.877Z,174.38
2022-12-25T10:59:24.873Z,168.75
2022-12-25T11:00:24.833Z,157.50
2022-12-25T11:01:24.955Z,135.00
2022-12-25T11:02:25.044Z,135.00
2022-12-25T11:03:24.913Z,129.38
2022-12-25T11:04:24.777Z,123.75
2022-12-25T11:05:24.784Z,123.75
2022-12-25T11:06:24.765Z,123.75
2022-12-25T11:07:24.769Z,118.12
2022-12-25T11:08:24.724Z,118.12
2022-12-25T11:09:24.753Z,123.75
2022-12-25T11:10:24.721Z,123.75
2022-12-25T11:11:24.695Z,123.75
2022-12-25T11:12:24.678Z,123.75
2022-12-25T11:13:24.673Z,129.38
2022-12-25T11:14:24.647Z,135.00
2022-12-25T11:15:24.646Z,129.38
2022-12-25T11:16:24.688Z,135.00
2022-12-25T11:17:24.648Z,135.00
2022-12-25T11:18:24.605Z,135.00
2022-12-25T11:19:24.600Z,135.00
2022-12-25T11:20:24.561Z,135.00
2022-12-25T11:21:24.564Z,135.00
2022-12-25T11:22:24.548Z,135.00
2022-12-25T11:23:24.555Z,135.00
2022-12-25T11:24:24.520Z,135.00
2022-12-25T11:25:24.513Z,135.00
2022-12-25T11:26:24.529Z,129.38
2022-12-25T11:27:24.485Z,123.75
2022-12-25T11:28:24.471Z,123.75
2022-12-25T11:29:24.563Z,123.75
2022-12-25T11:30:24.438Z,118.12
2022-12-25T11:31:24.497Z,118.12
2022-12-25T11:32:24.416Z,118.12
2022-12-25T11:33:24.420Z,112.50
2022-12-25T11:34:24.395Z,112.50
2022-12-25T11:35:24.397Z,112.50
2022-12-25T11:36:24.359Z,123.75
2022-12-25T11:37:24.406Z,123.75
2022-12-25T11:38:24.335Z,123.75
2022-12-25T11:39:24.343Z,123.75
2022-12-25T11:40:24.333Z,118.12
2022-12-25T11:41:24.303Z,112.50
2022-12-25T11:42:24.295Z,112.50
2022-12-25T11:43:24.274Z,112.50
2022-12-25T11:44:24.256Z,112.50
2022-12-25T11:45:24.268Z,106.88
2022-12-25T11:46:24.303Z,101.25
2022-12-25T11:47:24.242Z,101.25
2022-12-25T11:48:24.205Z,101.25
2022-12-25T11:49:24.205Z,101.25
2022-12-25T11:50:24.194Z,101.25
2022-12-25T11:51:24.175Z,101.25
2022-12-25T11:52:24.152Z,101.25
2022-12-25T11:53:24.164Z,101.25
2022-12-25T11:54:24.122Z,101.25
2022-12-25T11:55:24.131Z,106.88
2022-12-25T11:56:24.103Z,106.88
2022-12-25T11:57:24.107Z,106.88
2022-12-25T11:58:24.077Z,112.50
2022-12-25T11:59:24.110Z,112.50
2022-12-25T12:00:24.042Z,106.88
2022-12-25T12:01:24.118Z,112.50
2022-12-25T12:02:24.159Z,106.88
2022-12-25T12:03:24.098Z,106.88
2022-12-25T12:04:29.480Z,101.25
2022-12-25T12:05:25.008Z,101.25
2022-12-25T12:06:31.026Z,106.88
2022-12-25T12:07:23.989Z,106.88
2022-12-25T12:08:23.962Z,112.50
2022-12-25T12:09:23.973Z,106.88
2022-12-25T12:10:23.939Z,112.50
2022-12-25T12:11:23.954Z,106.88
2022-12-25T12:12:23.909Z,118.12
2022-12-25T12:13:23.910Z,112.50
2022-12-25T12:14:23.866Z,118.12
2022-12-25T12:15:23.881Z,118.12
2022-12-25T12:16:23.922Z,106.88
2022-12-25T12:17:23.857Z,101.25
2022-12-25T12:18:23.831Z,101.25
2022-12-25T12:19:23.814Z,101.25
2022-12-25T12:20:23.800Z,95.62
2022-12-25T12:21:23.802Z,95.62
2022-12-25T12:22:23.791Z,95.62
2022-12-25T12:23:23.795Z,90.00
2022-12-25T12:24:23.749Z,90.00
2022-12-25T12:25:23.771Z,90.00
2022-12-25T12:26:23.717Z,101.25
2022-12-25T12:27:23.727Z,95.62
2022-12-25T12:28:23.698Z,101.25
2022-12-25T12:29:23.708Z,95.62
2022-12-25T12:30:23.678Z,95.62
2022-12-25T12:31:23.687Z,101.25
2022-12-25T12:32:23.635Z,106.88
2022-12-25T12:33:23.689Z,112.50
2022-12-25T12:34:23.650Z,112.50
2022-12-25T12:35:23.628Z,106.88
2022-12-25T12:36:34.488Z,106.88
2022-12-25T12:37:25.182Z,106.88
2022-12-25T12:38:23.621Z,101.25
2022-12-25T12:39:23.568Z,95.62
2022-12-25T12:40:23.545Z,95.62
2022-12-25T12:41:23.552Z,90.00
2022-12-25T12:42:23.521Z,84.38
2022-12-25T12:43:23.528Z,90.00
2022-12-25T12:44:23.493Z,90.00
2022-12-25T12:45:23.682Z,84.38
2022-12-25T12:46:30.177Z,84.38
2022-12-25T12:47:24.496Z,90.00
2022-12-25T12:48:23.447Z,90.00
2022-12-25T12:49:23.429Z,84.38
2022-12-25T12:50:23.416Z,84.38
2022-12-25T12:51:23.408Z,78.75
2022-12-25T12:52:23.383Z,78.75
2022-12-25T12:53:23.481Z,78.75
2022-12-25T12:54:23.360Z,73.12
2022-12-25T12:55:23.360Z,73.12
2022-12-25T12:56:23.332Z,73.12
2022-12-25T12:57:23.342Z,67.50
2022-12-25T12:58:23.306Z,67.50
2022-12-25T12:59:23.306Z,67.50
2022-12-25T13:00:23.308Z,67.50